Time;durP1;ratioP1;P1;durP2;ratioP2;P2;SDS_P1;SDS_P2;PMS_P1;PMS_P2;Temp;Humidity;BMP_temperature;BMP_pressure;BME280_temperature;BME280_humidity;BME280_pressure;Samples;Min_cycle;Max_cycle;Signal;HPM_P1;HPM_P2
2021/11/20 00:00:49;;;;;;;23.02;15.23;;;12.10;99.90;;;;;;4118252;28;20038;-72
2021/11/20 00:02:51;;;;;;;24.67;15.40;;;12.10;99.90;;;;;;4135457;28;20045;-72
2021/11/20 00:04:52;;;;;;;22.58;16.02;;;12.10;99.90;;;;;;4118153;28;20030;-72
2021/11/20 00:06:56;;;;;;;22.52;15.75;;;12.10;99.90;;;;;;4135252;28;20064;-72
2021/11/20 00:08:58;;;;;;;30.08;16.33;;;12.10;99.90;;;;;;4135964;28;20038;-72
2021/11/20 00:11:03;;;;;;;21.05;15.57;;;12.10;99.90;;;;;;4117846;28;20069;-72
2021/11/20 00:13:08;;;;;;;22.52;16.55;;;12.10;99.90;;;;;;4117592;28;20030;-72
2021/11/20 00:15:12;;;;;;;27.27;18.67;;;12.10;99.90;;;;;;4135780;28;20038;-72
2021/11/20 00:17:14;;;;;;;27.52;17.65;;;12.10;99.90;;;;;;4118033;28;20487;-72
2021/11/20 00:19:15;;;;;;;23.75;16.67;;;12.00;99.90;;;;;;4118061;28;20030;-72
2021/11/20 00:21:26;;;;;;;21.33;15.45;;;12.10;99.90;;;;;;4135511;28;20650;-72
2021/11/20 00:23:33;;;;;;;22.70;15.48;;;12.10;99.90;;;;;;4116242;28;20029;-72
2021/11/20 00:25:57;;;;;;;24.50;17.23;;;12.10;99.90;;;;;;4131991;28;20034;-72
2021/11/20 00:28:00;;;;;;;27.30;16.83;;;12.00;99.90;;;;;;4135364;28;20032;-72
2021/11/20 00:30:14;;;;;;;21.65;16.40;;;12.10;99.90;;;;;;4135513;28;20479;-72
2021/11/20 00:32:18;;;;;;;26.90;17.60;;;12.10;99.90;;;;;;4134647;28;20599;-72
2021/11/20 00:34:24;;;;;;;30.38;19.25;;;12.10;99.90;;;;;;4135467;28;20042;-72
2021/11/20 00:36:26;;;;;;;24.27;17.30;;;12.00;99.90;;;;;;4131327;28;20046;-72
2021/11/20 00:38:29;;;;;;;27.48;18.38;;;12.00;99.90;;;;;;4135272;28;20084;-72
2021/11/20 00:40:36;;;;;;;28.63;18.02;;;12.00;99.90;;;;;;4135120;28;20074;-72
2021/11/20 00:42:37;;;;;;;27.20;18.40;;;12.00;99.90;;;;;;4134236;28;20654;-72
2021/11/20 00:44:38;;;;;;;34.08;19.38;;;12.00;99.90;;;;;;4110181;28;20034;-72
2021/11/20 00:46:39;;;;;;;26.92;18.42;;;12.00;99.90;;;;;;4133917;28;20034;-72
2021/11/20 00:48:42;;;;;;;29.58;18.58;;;12.00;99.90;;;;;;4137709;28;20121;-72
2021/11/20 00:50:46;;;;;;;22.30;16.13;;;12.00;99.90;;;;;;4115022;28;20027;-72
2021/11/20 00:52:48;;;;;;;27.10;18.52;;;12.00;99.90;;;;;;4131040;28;20049;-73
2021/11/20 00:54:48;;;;;;;24.08;17.08;;;12.00;99.90;;;;;;4131452;28;20038;-72
2021/11/20 00:56:49;;;;;;;27.05;17.45;;;12.00;99.90;;;;;;4130409;28;20239;-72
2021/11/20 00:58:51;;;;;;;26.55;17.50;;;12.00;99.90;;;;;;4132795;28;20042;-72
2021/11/20 01:00:55;;;;;;;27.23;18.05;;;12.00;99.90;;;;;;4118038;28;20038;-72
2021/11/20 01:02:56;;;;;;;27.45;18.27;;;12.00;99.90;;;;;;4136716;28;20046;-72
2021/11/20 01:04:57;;;;;;;23.20;18.10;;;12.00;99.90;;;;;;4121035;28;20030;-72
2021/11/20 01:06:58;;;;;;;29.45;17.80;;;12.00;99.90;;;;;;4120512;28;20541;-72
2021/11/20 01:08:59;;;;;;;25.25;17.90;;;12.00;99.90;;;;;;4138179;28;20022;-72
2021/11/20 01:11:05;;;;;;;28.63;18.33;;;12.00;99.90;;;;;;4137534;28;20634;-72
2021/11/20 01:13:06;;;;;;;24.00;16.58;;;12.00;99.90;;;;;;4120319;28;20116;-72
2021/11/20 01:15:10;;;;;;;26.55;18.73;;;12.00;99.90;;;;;;4138067;28;20030;-72
2021/11/20 01:17:13;;;;;;;31.38;20.80;;;12.00;99.90;;;;;;4137600;28;20038;-72
2021/11/20 01:19:14;;;;;;;28.20;18.70;;;12.00;99.90;;;;;;4138423;28;20033;-73
2021/11/20 01:21:16;;;;;;;27.40;19.08;;;12.00;99.90;;;;;;4137504;28;20528;-72
2021/11/20 01:23:20;;;;;;;28.38;18.75;;;12.00;99.90;;;;;;4118046;28;20134;-72
2021/11/20 01:25:21;;;;;;;26.65;18.77;;;12.00;99.90;;;;;;4136798;28;20053;-72
2021/11/20 01:27:23;;;;;;;26.92;18.40;;;12.00;99.90;;;;;;4137423;28;20034;-72
2021/11/20 01:29:25;;;;;;;23.23;16.93;;;12.00;99.90;;;;;;4120282;28;20027;-73
2021/11/20 01:31:29;;;;;;;25.70;17.02;;;12.00;99.90;;;;;;4136745;28;20308;-72
2021/11/20 01:33:30;;;;;;;24.92;17.75;;;12.00;99.90;;;;;;4137139;28;20042;-72
2021/11/20 01:35:32;;;;;;;24.70;17.55;;;12.00;99.90;;;;;;4136948;28;20034;-72
2021/11/20 01:37:33;;;;;;;32.53;18.60;;;12.00;99.90;;;;;;4136491;28;20041;-72
2021/11/20 01:39:37;;;;;;;23.53;17.00;;;12.00;99.90;;;;;;4137352;28;20035;-72
2021/11/20 01:41:40;;;;;;;25.58;17.48;;;12.00;99.90;;;;;;4136852;28;20831;-72
2021/11/20 01:43:41;;;;;;;24.10;16.40;;;12.10;99.90;;;;;;4118745;28;20823;-72
2021/11/20 01:45:56;;;;;;;21.73;15.63;;;12.10;99.90;;;;;;4136999;28;20044;-72
2021/11/20 01:48:16;;;;;;;22.25;16.27;;;12.10;99.90;;;;;;4137049;28;20057;-72
2021/11/20 01:50:32;;;;;;;27.10;17.55;;;12.10;99.90;;;;;;4117573;28;20753;-72
2021/11/20 01:52:42;;;;;;;23.95;17.63;;;12.10;99.90;;;;;;4135951;28;20041;-72
2021/11/20 01:54:50;;;;;;;25.42;18.20;;;12.10;99.90;;;;;;4119144;28;20034;-72
2021/11/20 01:56:54;;;;;;;23.98;17.08;;;12.00;99.90;;;;;;4132619;28;20069;-72
2021/11/20 01:59:08;;;;;;;24.15;17.23;;;12.00;99.90;;;;;;4136130;28;20084;-72
2021/11/20 02:01:08;;;;;;;22.08;15.93;;;12.00;99.90;;;;;;4114783;28;20105;-72
2021/11/20 02:03:29;;;;;;;21.83;16.17;;;12.00;99.90;;;;;;4136570;28;20022;-72
2021/11/20 02:05:40;;;;;;;23.13;15.80;;;12.00;99.90;;;;;;4103070;28;21617;-72
2021/11/20 02:08:06;;;;;;;22.70;16.33;;;12.00;99.90;;;;;;4135634;28;20034;-72
2021/11/20 02:10:30;;;;;;;22.63;15.70;;;12.00;99.90;;;;;;4105658;28;20222;-72
2021/11/20 02:12:36;;;;;;;23.75;16.65;;;12.00;99.90;;;;;;4133182;28;20054;-72
2021/11/20 02:14:37;;;;;;;23.98;15.45;;;12.00;99.90;;;;;;4136211;28;20100;-72
2021/11/20 02:16:57;;;;;;;20.38;14.85;;;12.00;99.90;;;;;;4136051;28;20431;-72
2021/11/20 02:19:00;;;;;;;26.27;17.15;;;12.00;99.90;;;;;;4135948;28;20034;-72
2021/11/20 02:21:35;;;;;;;19.88;14.77;;;12.00;99.90;;;;;;4135847;28;20564;-72
2021/11/20 02:23:36;;;;;;;21.63;14.85;;;12.00;99.90;;;;;;4101221;28;20208;-72
2021/11/20 02:25:36;;;;;;;22.25;15.15;;;12.00;99.90;;;;;;4131835;28;20030;-72
2021/11/20 02:27:43;;;;;;;20.48;15.13;;;12.00;99.90;;;;;;4115949;28;20033;-72
2021/11/20 02:29:45;;;;;;;22.55;15.02;;;12.00;99.90;;;;;;4129918;28;20030;-72
2021/11/20 02:31:56;;;;;;;21.30;15.10;;;12.00;99.90;;;;;;4132647;28;20073;-72
2021/11/20 02:33:56;;;;;;;22.45;15.43;;;12.00;99.90;;;;;;4131883;28;20152;-72
2021/11/20 02:36:12;;;;;;;21.70;15.93;;;12.00;99.90;;;;;;4128516;28;20074;-72
2021/11/20 02:38:29;;;;;;;23.42;16.67;;;12.00;99.90;;;;;;4113403;28;20038;-72
2021/11/20 02:40:30;;;;;;;23.20;16.17;;;12.10;99.90;;;;;;4125882;28;20447;-72
2021/11/20 02:42:31;;;;;;;24.02;16.60;;;12.10;99.90;;;;;;4111775;28;20062;-72
2021/11/20 02:44:33;;;;;;;21.00;15.25;;;12.00;99.90;;;;;;4129163;28;20045;-72
2021/11/20 02:46:42;;;;;;;22.00;15.55;;;12.10;99.90;;;;;;4131269;28;20454;-72
2021/11/20 02:48:42;;;;;;;19.38;14.15;;;12.10;99.90;;;;;;4132116;28;20159;-72
2021/11/20 02:51:02;;;;;;;19.92;14.85;;;12.10;99.90;;;;;;4128032;28;20049;-72
2021/11/20 02:53:04;;;;;;;21.77;15.38;;;12.10;99.90;;;;;;4132519;28;21355;-72
2021/11/20 02:55:05;;;;;;;;;;;12.10;99.90;;;;;;4115240;28;20354;-72
2021/11/20 02:57:19;;;;;;;19.75;14.45;;;12.10;99.90;;;;;;4126176;28;19906;-72
2021/11/20 02:59:20;;;;;;;22.00;15.32;;;12.10;99.90;;;;;;4129208;28;20162;-72
2021/11/20 03:01:29;;;;;;;24.15;16.90;;;12.10;99.90;;;;;;4130890;28;21918;-72
2021/11/20 03:03:29;;;;;;;24.65;17.27;;;12.10;99.90;;;;;;4128883;28;20087;-72
2021/11/20 03:05:30;;;;;;;27.92;19.15;;;12.10;99.90;;;;;;4131247;28;20034;-72
2021/11/20 03:07:31;;;;;;;25.38;18.63;;;12.00;99.90;;;;;;4126879;28;20038;-72
2021/11/20 03:09:33;;;;;;;24.27;17.45;;;12.00;99.90;;;;;;4131666;28;20030;-72
2021/11/20 03:11:34;;;;;;;24.85;17.42;;;12.00;99.90;;;;;;4126203;28;20046;-72
2021/11/20 03:13:35;;;;;;;24.98;17.40;;;12.00;99.90;;;;;;4127009;28;20041;-72
2021/11/20 03:15:36;;;;;;;27.48;19.40;;;12.00;99.90;;;;;;4130725;28;20478;-72
2021/11/20 03:17:37;;;;;;;28.50;19.85;;;12.00;99.90;;;;;;4131307;28;20415;-72
2021/11/20 03:19:42;;;;;;;28.00;19.73;;;12.00;99.90;;;;;;4113429;28;20152;-72
2021/11/20 03:21:46;;;;;;;27.75;19.88;;;12.00;99.90;;;;;;4112847;28;20040;-72
2021/11/20 03:23:51;;;;;;;29.95;19.80;;;12.00;99.90;;;;;;4130235;28;20050;-72
2021/11/20 03:25:52;;;;;;;25.10;18.23;;;12.00;99.90;;;;;;4114682;28;20113;-72
2021/11/20 03:27:52;;;;;;;25.95;18.55;;;12.00;99.90;;;;;;4132366;28;20494;-72
2021/11/20 03:29:53;;;;;;;28.77;19.42;;;12.00;99.90;;;;;;4113216;28;20054;-72
2021/11/20 03:31:54;;;;;;;27.40;20.23;;;12.00;99.90;;;;;;4130691;28;20061;-72
2021/11/20 03:33:55;;;;;;;29.70;19.45;;;12.00;99.90;;;;;;4109121;28;20026;-72
2021/11/20 03:35:56;;;;;;;28.38;19.60;;;12.00;99.90;;;;;;4131564;28;20036;-72
2021/11/20 03:37:57;;;;;;;30.70;20.33;;;12.00;99.90;;;;;;4111136;28;20122;-72
2021/11/20 03:39:57;;;;;;;32.45;20.83;;;12.00;99.90;;;;;;4134674;28;20049;-72
2021/11/20 03:41:58;;;;;;;30.02;20.25;;;12.00;99.90;;;;;;4132565;28;20022;-72
2021/11/20 03:43:59;;;;;;;30.00;19.73;;;12.00;99.90;;;;;;4134839;28;20037;-72
2021/11/20 03:46:00;;;;;;;31.85;20.70;;;12.00;99.90;;;;;;4128152;28;20026;-72
2021/11/20 03:48:02;;;;;;;32.05;21.10;;;12.00;99.90;;;;;;4134906;28;20034;-72
2021/11/20 03:50:04;;;;;;;34.30;21.70;;;12.00;99.90;;;;;;4130211;28;20185;-71
2021/11/20 03:52:05;;;;;;;33.67;22.07;;;11.90;99.90;;;;;;4131404;28;20045;-72
2021/11/20 03:54:05;;;;;;;32.85;21.60;;;11.90;99.90;;;;;;4128539;28;20429;-72
2021/11/20 03:56:06;;;;;;;32.28;22.17;;;11.90;99.90;;;;;;4129404;28;20038;-72
2021/11/20 03:58:08;;;;;;;31.00;21.88;;;11.90;99.90;;;;;;4131474;28;20551;-72
2021/11/20 04:00:12;;;;;;;35.70;22.73;;;11.90;99.90;;;;;;4133009;28;20041;-72
2021/11/20 04:02:13;;;;;;;33.08;22.25;;;11.90;99.90;;;;;;4130044;28;20256;-72
2021/11/20 04:04:14;;;;;;;31.80;21.05;;;11.80;99.90;;;;;;4115834;28;20030;-72
2021/11/20 04:06:16;;;;;;;33.63;22.40;;;11.80;99.90;;;;;;4131392;28;20575;-72
2021/11/20 04:08:18;;;;;;;33.55;21.98;;;11.80;99.90;;;;;;4133092;28;20057;-72
2021/11/20 04:10:19;;;;;;;36.67;23.92;;;11.80;99.90;;;;;;4130114;28;20731;-72
2021/11/20 04:12:20;;;;;;;33.70;21.52;;;11.80;99.90;;;;;;4113422;28;20565;-72
2021/11/20 04:14:22;;;;;;;32.90;23.05;;;11.80;99.90;;;;;;4111240;28;20038;-72
2021/11/20 04:16:25;;;;;;;31.90;21.10;;;11.80;99.90;;;;;;4126551;28;20034;-72
2021/11/20 04:18:25;;;;;;;;;;;11.80;99.90;;;;;;4109506;28;20038;-72
2021/11/20 04:20:27;;;;;;;37.30;23.55;;;11.80;99.90;;;;;;4129609;28;20286;-72
2021/11/20 04:22:28;;;;;;;40.67;23.45;;;11.80;99.90;;;;;;4131779;28;20026;-72
2021/11/20 04:24:28;;;;;;;38.78;25.02;;;11.80;99.90;;;;;;4114676;28;20080;-73
2021/11/20 04:26:29;;;;;;;35.75;23.00;;;11.80;99.90;;;;;;4133055;28;20057;-72
2021/11/20 04:28:30;;;;;;;35.47;22.80;;;11.80;99.90;;;;;;4129194;28;20584;-72
2021/11/20 04:30:30;;;;;;;35.50;22.98;;;11.80;99.90;;;;;;4129688;28;20046;-72
2021/11/20 04:32:31;;;;;;;34.90;22.98;;;11.80;99.90;;;;;;4132042;28;20057;-72
2021/11/20 04:34:32;;;;;;;38.97;24.48;;;11.80;99.90;;;;;;4116068;28;20038;-72
2021/11/20 04:36:33;;;;;;;39.00;24.55;;;11.80;99.90;;;;;;4117686;28;20026;-72
2021/11/20 04:38:34;;;;;;;37.65;23.73;;;11.80;99.90;;;;;;4129228;28;20042;-72
2021/11/20 04:40:35;;;;;;;41.90;25.67;;;11.80;99.90;;;;;;4134600;28;20065;-72
2021/11/20 04:42:37;;;;;;;43.47;25.70;;;11.80;99.90;;;;;;4130931;28;20029;-72
2021/11/20 04:44:37;;;;;;;42.40;26.30;;;11.80;99.90;;;;;;4131680;28;20026;-72
2021/11/20 04:46:38;;;;;;;40.75;25.88;;;11.80;99.90;;;;;;4132298;28;20041;-72
2021/11/20 04:48:39;;;;;;;45.67;24.88;;;11.70;99.90;;;;;;4132036;28;20655;-72
2021/11/20 04:50:41;;;;;;;38.55;25.08;;;11.70;99.90;;;;;;4133761;28;20628;-72
2021/11/20 04:52:42;;;;;;;37.22;24.08;;;11.80;99.90;;;;;;4131512;28;20237;-72
2021/11/20 04:54:43;;;;;;;36.75;23.00;;;11.70;99.90;;;;;;4117282;28;20098;-72
2021/11/20 04:56:43;;;;;;;41.42;26.58;;;11.70;99.90;;;;;;4130602;28;20088;-72
2021/11/20 04:58:45;;;;;;;41.65;25.30;;;11.70;99.90;;;;;;4111956;28;20043;-72
2021/11/20 05:00:50;;;;;;;41.45;25.88;;;11.70;99.90;;;;;;4132386;28;20034;-72
2021/11/20 05:02:52;;;;;;;35.75;23.02;;;11.70;99.90;;;;;;4131193;28;20058;-72
2021/11/20 05:04:52;;;;;;;39.53;24.90;;;11.70;99.90;;;;;;4130788;28;20057;-72
2021/11/20 05:06:53;;;;;;;42.95;25.15;;;11.70;99.90;;;;;;4136342;28;20084;-72
2021/11/20 05:08:59;;;;;;;40.53;24.42;;;11.70;99.90;;;;;;4133976;28;20157;-72
2021/11/20 05:11:00;;;;;;;43.10;26.98;;;11.70;99.90;;;;;;4134707;28;20540;-72
2021/11/20 05:13:00;;;;;;;39.63;24.92;;;11.70;99.90;;;;;;4131107;28;20037;-72
2021/11/20 05:15:02;;;;;;;38.38;23.88;;;11.70;99.90;;;;;;4132231;28;20131;-72
2021/11/20 05:17:04;;;;;;;47.95;27.33;;;11.70;99.90;;;;;;4128791;28;20034;-72
2021/11/20 05:19:08;;;;;;;42.33;25.73;;;11.60;99.90;;;;;;4128863;28;20061;-72
2021/11/20 05:21:08;;;;;;;40.05;24.63;;;11.70;99.90;;;;;;4131759;28;20397;-72
2021/11/20 05:23:10;;;;;;;38.75;25.48;;;11.60;99.90;;;;;;4113961;28;20062;-72
2021/11/20 05:25:13;;;;;;;35.97;23.58;;;11.70;99.90;;;;;;4115813;28;20045;-72
2021/11/20 05:27:14;;;;;;;42.95;27.25;;;11.60;99.90;;;;;;4130132;28;20042;-72
2021/11/20 05:29:25;;;;;;;41.58;24.08;;;11.60;99.90;;;;;;4128794;28;20440;-72
2021/11/20 05:31:27;;;;;;;39.55;24.20;;;11.70;99.90;;;;;;4114232;28;20114;-72
2021/11/20 05:33:44;;;;;;;40.63;24.15;;;11.60;99.90;;;;;;4113278;28;20206;-72
2021/11/20 05:35:47;;;;;;;37.00;23.48;;;11.70;99.90;;;;;;4134065;28;20038;-72
2021/11/20 05:37:48;;;;;;;33.58;21.90;;;11.70;99.90;;;;;;4132134;28;20042;-72
2021/11/20 05:39:49;;;;;;;38.72;23.63;;;11.70;99.90;;;;;;4131606;28;20037;-72
2021/11/20 05:41:51;;;;;;;34.45;22.15;;;11.70;99.90;;;;;;4114082;28;20034;-72
2021/11/20 05:43:51;;;;;;;31.88;21.65;;;11.70;99.90;;;;;;4132025;28;20034;-72
2021/11/20 05:45:59;;;;;;;34.17;21.35;;;11.80;99.90;;;;;;4111108;28;20034;-72
2021/11/20 05:47:59;;;;;;;30.30;19.92;;;11.80;99.90;;;;;;4135169;28;20125;-72
2021/11/20 05:50:00;;;;;;;32.25;21.02;;;11.80;99.90;;;;;;4132997;28;20054;-72
2021/11/20 05:52:02;;;;;;;33.67;22.55;;;11.80;99.90;;;;;;4113620;28;20123;-72
2021/11/20 05:54:05;;;;;;;32.42;21.15;;;11.80;99.90;;;;;;4111628;28;20043;-72
2021/11/20 05:56:05;;;;;;;;;;;11.90;99.90;;;;;;4128673;28;20030;-72
2021/11/20 05:58:06;;;;;;;33.95;21.05;;;11.80;99.90;;;;;;4117553;28;19916;-72
2021/11/20 06:00:13;;;;;;;33.28;21.75;;;11.90;99.90;;;;;;4132461;28;20662;-72
2021/11/20 06:02:15;;;;;;;33.90;22.40;;;11.90;99.90;;;;;;4114625;28;20043;-72
2021/11/20 06:04:16;;;;;;;33.70;21.45;;;11.90;99.90;;;;;;4131224;28;20041;-72
2021/11/20 06:06:18;;;;;;;36.03;22.77;;;11.90;99.90;;;;;;4110087;28;20094;-72
2021/11/20 06:08:20;;;;;;;34.53;22.52;;;11.90;99.90;;;;;;4134266;28;20100;-72
2021/11/20 06:10:21;;;;;;;33.83;21.50;;;11.90;99.90;;;;;;4110391;28;20038;-72
2021/11/20 06:12:22;;;;;;;35.00;21.65;;;11.90;99.90;;;;;;4097763;28;20722;-72
2021/11/20 06:14:23;;;;;;;33.05;20.88;;;11.90;99.90;;;;;;4127136;28;20061;-72
2021/11/20 06:16:24;;;;;;;35.13;22.27;;;11.90;99.90;;;;;;4134303;28;20044;-72
2021/11/20 06:18:24;;;;;;;36.45;23.52;;;11.90;99.90;;;;;;4110794;28;20046;-72
2021/11/20 06:20:25;;;;;;;37.13;22.70;;;11.90;99.90;;;;;;4129649;28;20035;-72
2021/11/20 06:22:27;;;;;;;33.22;21.80;;;11.90;99.90;;;;;;4127261;28;20739;-72
2021/11/20 06:24:28;;;;;;;33.25;20.92;;;11.90;99.90;;;;;;4136195;28;20046;-72
2021/11/20 06:26:29;;;;;;;39.00;23.90;;;11.90;99.90;;;;;;4111256;28;20042;-72
2021/11/20 06:28:30;;;;;;;39.53;24.58;;;11.90;99.90;;;;;;4134575;28;20030;-72
2021/11/20 06:30:32;;;;;;;41.25;24.88;;;11.80;99.90;;;;;;4114915;28;20038;-72
2021/11/20 06:32:33;;;;;;;38.22;24.15;;;11.80;99.90;;;;;;4135459;28;20049;-72
2021/11/20 06:34:33;;;;;;;42.15;25.10;;;11.80;99.90;;;;;;4133154;28;20046;-72
2021/11/20 06:36:35;;;;;;;36.80;23.95;;;11.80;99.90;;;;;;4135659;28;20033;-72
2021/11/20 06:38:39;;;;;;;38.20;23.45;;;11.80;99.90;;;;;;4130935;28;20046;-72
2021/11/20 06:40:43;;;;;;;39.47;24.65;;;11.80;99.90;;;;;;4113982;28;20030;-72
2021/11/20 06:42:45;;;;;;;36.13;22.95;;;11.80;99.90;;;;;;4133675;28;20034;-72
2021/11/20 06:44:47;;;;;;;37.45;23.52;;;11.80;99.90;;;;;;4096848;28;20050;-72
2021/11/20 06:46:48;;;;;;;35.05;23.30;;;11.80;99.90;;;;;;4112986;28;20042;-72
2021/11/20 06:48:48;;;;;;;38.17;24.65;;;11.80;99.90;;;;;;4131931;28;20026;-72
2021/11/20 06:50:51;;;;;;;41.67;25.25;;;11.80;99.90;;;;;;4118013;28;20096;-72
2021/11/20 06:52:52;;;;;;;;;;;11.80;99.90;;;;;;4107400;28;20050;-72
2021/11/20 06:54:52;;;;;;;35.20;21.77;;;11.80;99.90;;;;;;4102055;28;19993;-72
2021/11/20 06:56:53;;;;;;;36.22;23.30;;;11.80;99.90;;;;;;4132295;28;20034;-72
2021/11/20 07:01:36;;;;;;;39.05;23.13;;;11.70;99.90;;;;;;4075052;29;20035;-72
2021/11/20 07:03:43;;;;;;;37.07;22.83;;;11.80;99.90;;;;;;4081764;28;20733;-74
2021/11/20 07:05:55;;;;;;;38.80;23.77;;;11.70;99.90;;;;;;4081096;28;20187;-73
2021/11/20 07:07:56;;;;;;;40.42;24.92;;;11.80;99.90;;;;;;4131701;28;20121;-74
2021/11/20 07:09:57;;;;;;;41.20;24.38;;;11.70;99.90;;;;;;4130718;28;20026;-74
2021/11/20 07:11:59;;;;;;;47.65;26.48;;;11.80;99.90;;;;;;4129670;28;20046;-73
2021/11/20 07:14:00;;;;;;;49.50;28.08;;;11.80;99.90;;;;;;4130047;28;20529;-73
2021/11/20 07:16:01;;;;;;;46.38;27.30;;;11.70;99.90;;;;;;4099252;28;20035;-73
2021/11/20 07:18:03;;;;;;;46.35;25.42;;;11.70;99.90;;;;;;4130838;28;20034;-73
2021/11/20 07:20:04;;;;;;;47.15;27.70;;;11.80;99.90;;;;;;4118202;28;20046;-74
2021/11/20 07:22:05;;;;;;;44.67;25.73;;;11.70;99.90;;;;;;4128216;28;20436;-73
2021/11/20 07:24:09;;;;;;;41.95;26.13;;;11.80;99.90;;;;;;4116149;28;20121;-74
2021/11/20 07:26:10;;;;;;;44.63;26.92;;;11.70;99.90;;;;;;4131702;28;20052;-74
2021/11/20 07:28:12;;;;;;;42.08;25.60;;;11.70;99.90;;;;;;4137692;28;20037;-74
2021/11/20 07:30:15;;;;;;;42.60;25.48;;;11.70;99.90;;;;;;4131351;28;20050;-74
2021/11/20 07:32:15;;;;;;;37.47;22.83;;;11.70;99.90;;;;;;4131672;28;20129;-74
2021/11/20 07:34:16;;;;;;;38.35;23.25;;;11.70;99.90;;;;;;4133414;28;20069;-73
2021/11/20 07:36:18;;;;;;;41.35;24.58;;;11.70;99.90;;;;;;4118177;28;20034;-74
2021/11/20 07:38:26;;;;;;;42.43;24.83;;;11.70;99.90;;;;;;4113648;28;20523;-74
2021/11/20 07:40:29;;;;;;;39.63;24.80;;;11.70;99.90;;;;;;4131883;28;20046;-74
2021/11/20 07:42:30;;;;;;;39.42;24.00;;;11.70;99.90;;;;;;4112354;28;20041;-74
2021/11/20 07:44:31;;;;;;;36.60;22.77;;;11.70;99.90;;;;;;4136099;28;20121;-74
2021/11/20 07:46:32;;;;;;;38.78;23.30;;;11.70;99.90;;;;;;4130796;28;20371;-74
2021/11/20 07:48:36;;;;;;;41.70;25.02;;;11.70;99.90;;;;;;4131501;28;20033;-73
2021/11/20 07:50:39;;;;;;;41.35;25.35;;;11.70;99.90;;;;;;4115135;28;20047;-73
2021/11/20 07:52:39;;;;;;;37.22;22.30;;;11.70;99.90;;;;;;4129648;28;20038;-74
2021/11/20 07:54:40;;;;;;;39.25;24.23;;;11.70;99.90;;;;;;4114123;28;20257;-74
2021/11/20 07:56:42;;;;;;;39.08;24.08;;;11.70;99.90;;;;;;4129721;28;20034;-74
2021/11/20 07:58:43;;;;;;;40.30;24.75;;;11.70;99.90;;;;;;4132650;28;20034;-74
2021/11/20 08:00:44;;;;;;;38.38;24.08;;;11.70;99.90;;;;;;4133221;28;20034;-74
2021/11/20 08:02:45;;;;;;;39.72;25.20;;;11.70;99.90;;;;;;4132805;28;20107;-74
2021/11/20 08:04:46;;;;;;;38.10;24.27;;;11.70;99.90;;;;;;4117444;28;20038;-72
2021/11/20 08:06:47;;;;;;;38.05;23.90;;;11.70;99.90;;;;;;4131135;28;20046;-72
2021/11/20 08:08:48;;;;;;;39.47;24.00;;;11.70;99.90;;;;;;4118070;28;20041;-72
2021/11/20 08:10:50;;;;;;;37.72;23.95;;;11.70;99.90;;;;;;4116303;28;20127;-72
2021/11/20 08:12:51;;;;;;;37.17;22.45;;;11.70;99.90;;;;;;4129853;28;20509;-72
2021/11/20 08:14:51;;;;;;;38.42;23.42;;;11.70;99.90;;;;;;4114221;28;20050;-72
2021/11/20 08:16:52;;;;;;;37.67;24.48;;;11.70;99.90;;;;;;4115606;28;20105;-72
2021/11/20 08:18:52;;;;;;;37.55;24.23;;;11.80;99.90;;;;;;4130835;28;20053;-72
2021/11/20 08:20:53;;;;;;;36.88;24.05;;;11.80;99.90;;;;;;4099633;28;20035;-72
2021/11/20 08:22:54;;;;;;;41.50;25.20;;;11.80;99.90;;;;;;4117534;28;20034;-72
2021/11/20 08:24:54;;;;;;;35.45;23.98;;;11.80;99.90;;;;;;4134812;28;20096;-72
2021/11/20 08:26:55;;;;;;;39.10;25.13;;;11.80;99.90;;;;;;4135657;28;20116;-72
2021/11/20 08:28:56;;;;;;;40.78;25.67;;;11.80;99.90;;;;;;4119678;28;20478;-73
2021/11/20 08:30:57;;;;;;;39.63;24.80;;;11.80;99.90;;;;;;4131011;28;20106;-72
2021/11/20 08:33:00;;;;;;;41.08;25.70;;;11.80;99.90;;;;;;4131594;28;20060;-72
2021/11/20 08:35:00;;;;;;;;;;;11.80;99.90;;;;;;4137144;28;20121;-72
2021/11/20 08:37:01;;;;;;;42.90;25.90;;;11.80;99.90;;;;;;4114113;28;20489;-73
2021/11/20 08:39:03;;;;;;;43.70;25.67;;;11.80;99.90;;;;;;4118006;28;20368;-72
2021/11/20 08:41:06;;;;;;;40.25;25.65;;;11.80;99.90;;;;;;4132428;28;20092;-72
2021/11/20 08:43:07;;;;;;;44.28;26.85;;;11.80;99.90;;;;;;4135185;28;20060;-72
2021/11/20 08:45:12;;;;;;;45.40;27.05;;;11.80;99.90;;;;;;4117293;28;20046;-72
2021/11/20 08:47:13;;;;;;;38.58;23.80;;;11.80;99.90;;;;;;4112841;28;20043;-72
2021/11/20 08:49:14;;;;;;;39.83;24.50;;;11.80;99.90;;;;;;4136367;28;20042;-72
2021/11/20 08:51:17;;;;;;;41.90;25.65;;;11.80;99.90;;;;;;4118836;28;20034;-73
2021/11/20 08:53:18;;;;;;;;;;;11.80;99.90;;;;;;4128122;28;20049;-72
2021/11/20 08:55:18;;;;;;;38.50;24.08;;;11.80;99.90;;;;;;4130984;28;19923;-72
2021/11/20 08:57:19;;;;;;;39.53;24.95;;;11.80;99.90;;;;;;4126300;28;20055;-72
2021/11/20 08:59:22;;;;;;;41.92;26.02;;;11.80;99.90;;;;;;4125525;28;20491;-72
2021/11/20 09:01:51;;;;;;;42.80;25.75;;;11.80;99.90;;;;;;4129312;28;20596;-72
2021/11/20 09:04:00;;;;;;;41.40;25.58;;;11.80;99.90;;;;;;4122643;28;20029;-72
2021/11/20 09:06:09;;;;;;;40.60;25.45;;;11.70;99.90;;;;;;4093585;28;20050;-72
2021/11/20 09:08:26;;;;;;;43.08;26.70;;;11.80;99.90;;;;;;4114056;28;20053;-72
2021/11/20 09:10:39;;;;;;;47.03;27.52;;;11.80;99.90;;;;;;4132929;28;20045;-72
2021/11/20 09:12:47;;;;;;;40.78;24.75;;;11.80;99.90;;;;;;4131010;28;20045;-72
2021/11/20 09:14:58;;;;;;;42.20;26.00;;;11.70;99.90;;;;;;4132479;28;20165;-72
2021/11/20 09:16:59;;;;;;;45.53;28.38;;;11.80;99.90;;;;;;4116316;28;20047;-72
2021/11/20 09:19:02;;;;;;;40.60;25.58;;;11.70;99.90;;;;;;4132227;28;20117;-72
2021/11/20 09:21:06;;;;;;;40.42;25.58;;;11.70;99.90;;;;;;4137977;28;20445;-72
2021/11/20 09:23:07;;;;;;;43.50;26.08;;;11.70;99.90;;;;;;4131814;28;20069;-72
2021/11/20 09:25:09;;;;;;;37.40;23.00;;;11.70;99.90;;;;;;4133122;28;20038;-72
2021/11/20 09:27:11;;;;;;;38.53;23.37;;;11.70;99.90;;;;;;4133492;28;20513;-72
2021/11/20 09:31:24;;;;;;;35.10;22.05;;;11.80;99.90;;;;;;4869010;22;20085;-70
2021/11/20 09:33:26;;;;;;;38.08;23.80;;;11.80;99.90;;;;;;4122706;28;20097;-70
2021/11/20 09:35:27;;;;;;;35.70;21.80;;;11.80;99.90;;;;;;4124254;28;20038;-71
2021/11/20 09:37:27;;;;;;;39.88;24.80;;;11.80;99.90;;;;;;4090593;29;20032;-71
2021/11/20 09:39:33;;;;;;;37.65;24.08;;;11.80;99.90;;;;;;4124486;28;20027;-71
2021/11/20 09:41:36;;;;;;;36.92;24.20;;;11.80;99.90;;;;;;4107743;28;20414;-71
2021/11/20 09:43:40;;;;;;;37.40;23.70;;;11.80;99.90;;;;;;4122344;28;20033;-71
2021/11/20 09:45:45;;;;;;;37.88;24.20;;;11.80;99.90;;;;;;4125057;28;20042;-71
2021/11/20 09:47:55;;;;;;;40.10;24.73;;;11.80;99.90;;;;;;4127824;28;20516;-72
2021/11/20 09:50:03;;;;;;;37.72;24.08;;;11.80;99.90;;;;;;4123428;28;20022;-71
2021/11/20 09:52:05;;;;;;;40.97;24.67;;;11.80;99.90;;;;;;4126154;28;20125;-72
2021/11/20 09:54:12;;;;;;;37.08;23.65;;;11.80;99.90;;;;;;4102174;28;20081;-71
2021/11/20 09:56:21;;;;;;;32.08;21.00;;;11.80;99.90;;;;;;4108362;28;20533;-71
2021/11/20 09:58:34;;;;;;;39.88;24.35;;;11.80;99.90;;;;;;4120843;28;20394;-71
2021/11/20 10:01:10;;;;;;;34.80;22.10;;;11.80;99.90;;;;;;4106021;28;20031;-71
2021/11/20 10:03:25;;;;;;;33.65;21.98;;;11.70;99.90;;;;;;4104500;28;20049;-71
2021/11/20 10:05:35;;;;;;;36.83;22.92;;;11.70;99.90;;;;;;4125708;28;20058;-71
2021/11/20 10:08:05;;;;;;;34.72;21.83;;;11.70;99.90;;;;;;4124464;28;20355;-71
2021/11/20 10:10:14;;;;;;;32.88;21.25;;;11.70;99.90;;;;;;4094733;28;20061;-71
2021/11/20 10:12:19;;;;;;;38.00;22.48;;;11.70;99.90;;;;;;4122120;28;20041;-71
2021/11/20 10:14:36;;;;;;;34.92;21.63;;;11.70;99.90;;;;;;4123023;28;20097;-71
2021/11/20 10:16:57;;;;;;;35.00;21.25;;;11.70;99.90;;;;;;4124492;28;20375;-71
2021/11/20 10:19:15;;;;;;;30.60;20.75;;;11.70;99.90;;;;;;4122265;28;20113;-71
2021/11/20 10:21:19;;;;;;;36.33;21.77;;;11.70;99.90;;;;;;4122901;28;20042;-71
2021/11/20 10:23:38;;;;;;;29.65;18.52;;;11.70;99.90;;;;;;4118465;28;20043;-71
2021/11/20 10:26:17;;;;;;;31.70;21.35;;;11.70;99.90;;;;;;4120361;28;20039;-71
2021/11/20 10:28:34;;;;;;;36.28;22.30;;;11.70;99.90;;;;;;4082747;28;20089;-71
2021/11/20 10:30:56;;;;;;;34.03;21.90;;;11.70;99.90;;;;;;4118481;28;20568;-71
2021/11/20 10:33:05;;;;;;;31.35;21.10;;;11.70;99.90;;;;;;4089354;29;20046;-71
2021/11/20 10:35:25;;;;;;;35.28;22.10;;;11.70;99.90;;;;;;4106582;28;20486;-71